La Crosse, Illinois
Current Conditions -  °F | °C
As of 3:53 PM on Friday 24 Oct 2014 (Local Time) from KBRL Reporting Station
Clear Clear  
Wind Chill: 66°   Ceiling: Unl
Heat Index: 66°   Visibility: 10mi
Dew Point: 57°   Wind: 12mph
Humidity: 73%   Direction: 200°SSW
Pressure: 29.95"   Gusts: NA
Location:  40.593°N, 90.9639°W
Report Text: KBRL 242053Z AUTO 20010KT 10SM CLR 19/14 A2995 RMK AO2 SLP140 T01890139 56028
Loading
Personal Weather Stations






























Interactive Weather Map
Tropical Storm Tracking
New forecast layout! Learn more

10-Day Weather Forecast

Advertisements
Track Severe Weather on mobile